This is the latest recevied weather packets stored in our database for station/object F4FSZ-11. If no packets are shown the sender has not sent any weather packets the latest 10 day(s).
| Time | Temp. | Humidity | Pressure | Rain* | Wind** | Luminosity | Snow |
|---|---|---|---|---|---|---|---|
| 1777475891 | 25.56° C | 33% | 1010.7 hPa | - | - | - | - |
| 1777474991 | 25° C | 33% | 1010.7 hPa | - | - | - | - |
| 1777474091 | 26.67° C | 32% | 1010.7 hPa | - | - | - | - |
| 1777473191 | 26.11° C | 32% | 1010.7 hPa | - | - | - | - |
| 1777472291 | 24.44° C | 34% | 1010.7 hPa | - | - | - | - |
| 1777471391 | 24.44° C | 35% | 1010.8 hPa | - | - | - | - |
| 1777470491 | 26.67° C | 32% | 1010.9 hPa | - | - | - | - |
| 1777469591 | 33.33° C | 24% | 1010.7 hPa | - | - | - | - |
| 1777468691 | 26.67° C | 34% | 1010.8 hPa | - | - | - | - |
| 1777467791 | 26.11° C | 33% | 1010.8 hPa | - | - | - | - |
| 1777466891 | 27.22° C | 32% | 1010.9 hPa | - | - | - | - |
| 1777465991 | 27.22° C | 33% | 1010.8 hPa | - | - | - | - |
| 1777465090 | 27.22° C | 34% | 1010.7 hPa | - | - | - | - |
| 1777464190 | 27.78° C | 34% | 1010.9 hPa | - | - | - | - |
| 1777463290 | 27.22° C | 33% | 1010.9 hPa | - | - | - | - |
| 1777462390 | 26.11° C | 34% | 1010.8 hPa | - | - | - | - |
| 1777461490 | 26.67° C | 34% | 1010.9 hPa | - | - | - | - |
| 1777460590 | 25° C | 35% | 1011 hPa | - | - | - | - |
| 1777459690 | 25° C | 34% | 1011 hPa | - | - | - | - |
| 1777458790 | 25° C | 37% | 1011 hPa | - | - | - | - |
| 1777457890 | 23.33° C | 35% | 1011.2 hPa | - | - | - | - |
| 1777456990 | 22.78° C | 40% | 1011.3 hPa | - | - | - | - |
| 1777456090 | 21.67° C | 42% | 1011.2 hPa | - | - | - | - |
| 1777455190 | 21.11° C | 44% | 1011.5 hPa | - | - | - | - |
| 1777454290 | 20° C | 46% | 1011.4 hPa | - | - | - | - |
* Rain since midnight (hover to see other rain measurements)
** Current wind speed in m/s (hover to see current wind gust speed)